Weather forecast for 5. India Bir

Paragliding World Cup, 1553 m
N32.045, E76.724


Sounding

Red line — air temperature ˚C.
Blue line — thermal bubble temperature ˚C.
Green line — dew point temperature ˚C.
Wind speed is in meters per second.

Table forecast

GFS 0.25˚ model

temp. wind gust humid. clouds prec. press. hpbl
Mon14 00:00 19 47.0 ne 2 2 62 11 0.1 1006 19
03:00 18 45.0 ne 2 2 63 0 0.1 1005 19
06:00 18 36.0 ne 3 2 60 0 0.1 1004 25
09:00 22 248.0 wsw 2 2 52 0 0.3 1004 610
12:00 26 233.0 sw 3 2 41 0 0.4 1003 1657
15:00 27 252.0 wsw 4 3 35 16 1.1 1001 2488
18:00 25 358.0 n 4 3 41 17 2.2 1000 1108
21:00 21 39.0 ne 3 3 45 0 0.1 1001 31
 
Tue15 00:00 19 37.0 ne 4 3 45 0 0.1 1002 40
03:00 19 37.0 ne 4 3 43 0 0.0 1000 40
06:00 18 38.0 ne 4 3 42 0 0.0 1000 43
09:00 26 199.0 ssw 2 1 29 0 0.0 999 1610
12:00 28 232.0 sw 3 2 28 92 0.0 998 2780
15:00 30 250.0 wsw 3 3 23 95 0.1 996 3429
18:00 20 204.0 ssw 4 4 66 100 0.3 1000 534
21:00 19 45.0 ne 4 4 70 100 1.9 1001 132
 
Wed16 00:00 19 47.0 ne 4 4 56 25 2.2 1001 57
03:00 19 354.0 n 1 1 60 100 0.5 1001 18
06:00 16 58.0 ene 3 3 81 100 2.8 1003 109
09:00 18 41.0 ne 3 3 70 100 2.4 1004 88
12:00 19 21.0 nne 2 3 68 100 3.6 1006 171
15:00 20 45.0 ne 3 3 65 100 1.0 1005 223
18:00 23 154.0 sse 2 2 42 3 1.1 1002 716
21:00 18 42.0 ne 3 2 56 0 0.0 1004 30
 
Thu17 00:00 19 38.0 ne 3 3 47 45 0.0 1005 32
03:00 18 42.0 ne 3 2 44 0 0.0 1004 27
06:00 18 35.0 ne 3 3 44 16 0.0 1005 26
09:00 24 226.0 sw 2 1 34 94 0.0 1004 717
12:00 27 237.0 wsw 3 2 30 97 0.0 1003 1663
15:00 28 254.0 wsw 3 3 30 99 0.0 1002 2063
18:00 27 265.0 w 3 2 32 100 0.0 1002 1453
21:00 23 43.0 ne 2 2 42 100 0.0 1004 20
 
Fri18 00:00 22 38.0 ne 3 2 40 61 0.0 1005 26
03:00 22 41.0 ne 3 2 39 100 0.0 1004 27
06:00 20 24.0 nne 2 2 44 52 0.0 1005 20
09:00 26 227.0 sw 2 2 34 48 0.0 1004 870
12:00 28 249.0 wsw 4 3 34 100 0.1 1004 2165
15:00 28 263.0 w 3 2 35 70 0.6 1003 2519
18:00 28 271.0 w 3 3 34 58 1.1 1002 2405
21:00 22 44.0 ne 3 2 50 14 0.0 1005 34
 

0.013 s